This is the latest recevied weather packets stored in our database for station/object N7CEE. If no packets are shown the sender has not sent any weather packets the latest 10 day(s).
| Time | Temp. | Humidity | Pressure | Rain* | Wind** | Luminosity | Snow |
|---|---|---|---|---|---|---|---|
| 1777737981 | 13.33° C | 26% | 1027.8 hPa | 0 mm | - | 126 W/m² | - |
| 1777737680 | 13.33° C | 26% | 1027.7 hPa | 0 mm | - | 74 W/m² | - |
| 1777737378 | 13.33° C | 26% | 1027.6 hPa | 0 mm | - | 68 W/m² | - |
| 1777737074 | 12.78° C | 26% | 1027.7 hPa | 0 mm | - | 43 W/m² | - |
| 1777736771 | 12.78° C | 26% | 1027.7 hPa | 0 mm | - | 70 W/m² | - |
| 1777736148 | 13.33° C | 24% | 1027.4 hPa | 0 mm | - | 44 W/m² | - |
| 1777735845 | 12.78° C | 24% | 1027.6 hPa | 0 mm | - | 42 W/m² | - |
| 1777735543 | 12.78° C | 23% | 1027.4 hPa | 0 mm | - | 66 W/m² | - |
| 1777735240 | 12.22° C | 24% | 1027.3 hPa | 0 mm | - | 35 W/m² | - |
| 1777734937 | 12.22° C | 24% | 1027.3 hPa | 0 mm | - | 34 W/m² | - |
| 1777734634 | 12.22° C | 24% | 1027.4 hPa | 0 mm | - | 36 W/m² | - |
| 1777734332 | 11.67° C | 24% | 1027.2 hPa | 0 mm | - | 34 W/m² | - |
| 1777734028 | 11.67° C | 24% | 1027.2 hPa | 0 mm | - | 33 W/m² | - |
| 1777733724 | 11.11° C | 23% | 1027.3 hPa | 0 mm | - | 32 W/m² | - |
| 1777733421 | 10.56° C | 26% | 1027.2 hPa | 0 mm | - | 33 W/m² | - |
| 1777733117 | 10° C | 33% | 1027.3 hPa | 0 mm | - | 34 W/m² | - |
| 1777732814 | 9.44° C | 32% | 1027 hPa | 0 mm | - | 31 W/m² | - |
| 1777732510 | 8.33° C | 36% | 1027.1 hPa | 0 mm | - | 28 W/m² | - |
| 1777732209 | 7.78° C | 36% | 1027 hPa | 0 mm | - | 27 W/m² | - |
| 1777731905 | 7.78° C | 36% | 1027.1 hPa | 0 mm | - | 34 W/m² | - |
| 1777731602 | 7.22° C | 38% | 1027.2 hPa | 0 mm | - | 27 W/m² | - |
| 1777731299 | 6.67° C | 40% | 1026.8 hPa | 0 mm | - | 31 W/m² | - |
| 1777730996 | 6.67° C | 39% | 1026.8 hPa | 0 mm | - | 34 W/m² | - |
| 1777730695 | 6.11° C | 39% | 1027.1 hPa | 0 mm | - | 69 W/m² | - |
| 1777730391 | 5.56° C | 39% | 1026.8 hPa | 0 mm | - | 33 W/m² | - |
* Rain latest hour (hover to see other rain measurements)
** Current wind speed in m/s (hover to see current wind gust speed)